Time;durP1;ratioP1;P1;durP2;ratioP2;P2;SDS_P1;SDS_P2;PMS_P1;PMS_P2;Temp;Humidity;BMP_temperature;BMP_pressure;BME280_temperature;BME280_humidity;BME280_pressure;Samples;Min_cycle;Max_cycle;Signal;HPM_P1;HPM_P2
2022/09/05 00:00:05;;;;;;;0.30;0.30;;;;;;;13.24;70.20;101993.75;5129362;28;20447;-74
2022/09/05 00:02:41;;;;;;;0.30;0.30;;;;;;;13.20;70.22;101997.19;5128845;28;20051;-74
2022/09/05 00:05:29;;;;;;;0.30;0.30;;;;;;;13.13;70.31;101989.34;5129395;28;20016;-75
2022/09/05 00:08:10;;;;;;;0.30;0.30;;;;;;;13.13;70.20;101999.75;5111039;28;20601;-74
2022/09/05 00:11:21;;;;;;;0.30;0.30;;;;;;;13.13;70.40;101998.91;5129128;28;20044;-74
2022/09/05 00:14:12;;;;;;;0.40;0.40;;;;;;;13.03;70.39;101990.16;5124832;28;20035;-74
2022/09/05 00:16:49;;;;;;;0.30;0.30;;;;;;;13.01;70.65;101997.97;5128607;28;20024;-74
2022/09/05 00:19:26;;;;;;;0.40;0.40;;;;;;;12.97;70.75;102005.75;5128890;28;20023;-73
2022/09/05 00:22:10;;;;;;;0.30;0.30;;;;;;;13.04;70.62;102010.13;5128795;28;20020;-73
2022/09/05 00:24:35;;;;;;;0.30;0.30;;;;;;;12.97;70.95;101998.78;5128885;28;20222;-72
2022/09/05 00:27:00;;;;;;;0.30;0.30;;;;;;;12.95;70.89;102002.25;5128530;28;20035;-73
2022/09/05 00:29:58;;;;;;;0.30;0.30;;;;;;;12.83;70.97;101997.81;5128502;28;20388;-74
2022/09/05 00:32:40;;;;;;;0.30;0.30;;;;;;;12.87;71.09;102012.63;5045011;28;20045;-74
2022/09/05 00:35:18;;;;;;;0.40;0.40;;;;;;;12.82;71.12;102002.16;5045345;28;20071;-73
2022/09/05 00:37:46;;;;;;;0.30;0.30;;;;;;;12.85;71.46;102017.81;5028561;28;20030;-75
2022/09/05 00:40:24;;;;;;;0.30;0.30;;;;;;;12.81;71.43;102010.81;5028625;28;20029;-74
2022/09/05 00:42:54;;;;;;;0.30;0.30;;;;;;;12.74;71.67;102009.94;5045203;28;20152;-72
2022/09/05 00:45:30;;;;;;;1.05;1.05;;;;;;;12.70;71.69;102009.88;5045255;28;20174;-75
2022/09/05 00:48:25;;;;;;;0.40;0.40;;;;;;;12.73;71.92;102017.72;5044721;28;20121;-73
2022/09/05 00:51:11;;;;;;;0.30;0.30;;;;;;;12.70;71.86;102018.56;5045427;28;20037;-74
2022/09/05 00:53:50;;;;;;;0.30;0.30;;;;;;;12.67;71.88;102020.28;5028701;28;20030;-74
2022/09/05 00:56:50;;;;;;;0.30;0.30;;;;;;;12.63;71.94;102015.06;5044905;28;20041;-74
2022/09/05 00:59:39;;;;;;;0.65;0.65;;;;;;;12.56;72.06;102010.63;5026717;28;20484;-74
2022/09/05 01:02:27;;;;;;;0.32;0.32;;;;;;;12.58;72.12;102014.13;5043823;28;20041;-74
2022/09/05 01:04:59;;;;;;;0.30;0.30;;;;;;;12.55;72.14;102002.78;5044586;28;20176;-73
2022/09/05 01:07:50;;;;;;;0.35;0.35;;;;;;;12.57;72.31;102014.13;5066651;28;20042;-74
2022/09/05 01:10:38;;;;;;;0.30;0.30;;;;;;;12.51;72.46;102017.53;5127744;28;20051;-74
2022/09/05 01:13:20;;;;;;;0.30;0.30;;;;;;;12.48;72.50;102013.16;5127678;28;20080;-72
2022/09/05 01:15:45;;;;;;;0.87;0.87;;;;;;;12.49;72.64;102019.25;5109422;28;20475;-73
2022/09/05 01:18:32;;;;;;;0.30;0.30;;;;;;;12.49;72.83;102021.84;5127149;28;20263;-74
2022/09/05 01:21:16;;;;;;;0.30;0.30;;;;;;;12.45;72.97;102022.66;5109193;28;20019;-74
2022/09/05 01:24:26;;;;;;;0.38;0.38;;;;;;;12.36;72.94;102013.91;5127447;28;20019;-76
2022/09/05 01:27:29;;;;;;;0.30;0.30;;;;;;;12.42;73.10;102022.63;5108834;28;20024;-75
2022/09/05 01:30:29;;;;;;;0.30;0.30;;;;;;;12.38;73.28;102012.19;5127306;28;20024;-75
2022/09/05 01:33:03;;;;;;;0.30;0.30;;;;;;;12.32;73.25;102019.94;5120655;28;20067;-75
2022/09/05 01:35:53;;;;;;;0.30;0.30;;;;;;;12.30;73.23;102024.25;5108772;28;20490;-75
2022/09/05 01:38:43;;;;;;;0.30;0.30;;;;;;;12.28;73.44;102015.56;5126968;28;20016;-73
2022/09/05 01:41:20;;;;;;;0.30;0.30;;;;;;;12.26;73.34;102019.88;5126857;28;20034;-73
2022/09/05 01:44:04;;;;;;;0.60;0.60;;;;;;;12.26;73.55;102020.78;5108777;28;20028;-73
2022/09/05 01:46:38;;;;;;;0.30;0.30;;;;;;;12.24;73.60;102026.78;5126755;28;20047;-75
2022/09/05 01:49:07;;;;;;;0.40;0.40;;;;;;;12.22;73.65;102031.13;5126858;28;20052;-74
2022/09/05 01:51:40;;;;;;;0.38;0.38;;;;;;;12.20;73.57;102032.84;5126967;28;20049;-74
2022/09/05 01:54:05;;;;;;;0.30;0.30;;;;;;;12.19;73.65;102031.09;5126866;28;20058;-75
2022/09/05 01:56:52;;;;;;;0.30;0.30;;;;;;;12.13;73.90;102017.16;5108567;28;20023;-75
2022/09/05 01:59:36;;;;;;;0.30;0.30;;;;;;;12.12;73.57;102020.59;5108607;28;20050;-75
2022/09/05 02:02:39;;;;;;;0.63;0.63;;;;;;;12.09;73.70;102020.56;5126555;28;20482;-74
2022/09/05 02:05:12;;;;;;;0.30;0.30;;;;;;;12.06;73.50;102017.91;5126311;28;20420;-75
2022/09/05 02:07:53;;;;;;;0.30;0.30;;;;;;;12.06;73.89;102020.50;5126582;28;20028;-74
2022/09/05 02:10:28;;;;;;;0.30;0.30;;;;;;;12.01;73.87;102023.06;5126392;28;20023;-75
2022/09/05 02:13:16;;;;;;;0.30;0.30;;;;;;;11.96;73.92;102013.44;5126458;28;20027;-75
2022/09/05 02:15:47;;;;;;;0.30;0.30;;;;;;;11.95;74.10;102016.91;5107279;28;20020;-75
2022/09/05 02:18:27;;;;;;;0.38;0.38;;;;;;;11.94;74.20;102016.03;5107749;28;20037;-75
2022/09/05 02:20:57;;;;;;;0.35;0.35;;;;;;;11.92;74.11;102017.75;5108008;28;20027;-74
2022/09/05 02:23:35;;;;;;;0.30;0.30;;;;;;;11.93;74.61;102026.44;5126185;28;20038;-75
2022/09/05 02:26:04;;;;;;;0.30;0.30;;;;;;;11.92;74.59;102016.88;5107821;28;20034;-75
2022/09/05 02:28:42;;;;;;;0.50;0.50;;;;;;;11.92;75.08;102022.09;5126074;28;20020;-74
2022/09/05 02:31:51;;;;;;;0.30;0.30;;;;;;;11.93;75.34;102021.22;5126141;28;20052;-75
2022/09/05 02:35:07;;;;;;;0.30;0.30;;;;;;;11.84;75.22;102014.16;5125245;28;20063;-75
2022/09/05 02:38:20;;;;;;;0.30;0.30;;;;;;;11.84;75.15;102020.25;5042620;28;20096;-75
2022/09/05 02:40:54;;;;;;;0.40;0.40;;;;;;;11.83;75.25;102022.84;5026536;28;20056;-74
2022/09/05 02:43:45;;;;;;;0.30;0.30;;;;;;;11.78;75.42;102015.84;5042900;28;20635;-74
2022/09/05 02:46:19;;;;;;;0.40;0.40;;;;;;;11.73;75.51;102011.44;5042967;28;20053;-75
2022/09/05 02:49:04;;;;;;;0.30;0.30;;;;;;;11.75;75.32;102027.94;5043055;28;20041;-76
2022/09/05 02:51:44;;;;;;;0.30;0.30;;;;;;;11.71;75.38;102021.81;5043351;28;20041;-76
2022/09/05 02:54:18;;;;;;;0.30;0.30;;;;;;;11.65;75.26;102022.63;5042865;28;20091;-75
2022/09/05 02:56:55;;;;;;;0.30;0.30;;;;;;;11.66;75.28;102020.91;5042840;28;20030;-75
2022/09/05 02:59:36;;;;;;;0.30;0.30;;;;;;;11.68;75.50;102020.94;5042994;28;20033;-74
2022/09/05 03:02:25;;;;;;;0.40;0.40;;;;;;;11.62;75.71;102020.00;5042488;28;20033;-74
2022/09/05 03:05:08;;;;;;;0.30;0.30;;;;;;;11.60;75.87;102016.47;5042538;28;20097;-75
2022/09/05 03:07:55;;;;;;;0.30;0.30;;;;;;;11.62;76.12;102026.91;5050365;28;20109;-76
2022/09/05 03:10:51;;;;;;;0.30;0.30;;;;;;;11.60;76.21;102026.00;5082574;28;20512;-75
2022/09/05 03:13:47;;;;;;;0.30;0.30;;;;;;;11.58;75.99;102025.97;5082890;28;20048;-75
2022/09/05 03:16:46;;;;;;;0.30;0.30;;;;;;;11.57;75.99;102026.84;5106084;28;20028;-74
2022/09/05 03:19:33;;;;;;;0.30;0.30;;;;;;;11.53;76.02;102023.31;5107416;28;20379;-74
2022/09/05 03:22:08;;;;;;;1.50;1.40;;;;;;;11.52;75.92;102031.09;5125911;28;20050;-76
2022/09/05 03:24:39;;;;;;;0.30;0.30;;;;;;;11.52;76.26;102023.31;5125690;28;20031;-75
2022/09/05 03:27:20;;;;;;;0.40;0.40;;;;;;;11.50;76.44;102025.03;5126115;28;20024;-75
2022/09/05 03:29:56;;;;;;;0.30;0.30;;;;;;;11.47;76.60;102025.00;5128302;28;20030;-75
2022/09/05 03:32:53;;;;;;;0.40;0.40;;;;;;;11.49;76.83;102028.47;5110277;28;20022;-76
2022/09/05 03:35:55;;;;;;;0.30;0.30;;;;;;;11.49;77.00;102028.47;5129565;28;20089;-75
2022/09/05 03:38:39;;;;;;;;;;;;;;;11.49;77.06;102031.06;5111408;28;20391;-74
2022/09/05 03:41:23;;;;;;;0.30;0.30;;;;;;;11.41;77.00;102030.97;5110971;28;19908;-76
2022/09/05 03:44:18;;;;;;;0.30;0.30;;;;;;;11.38;77.30;102030.91;5129413;28;20487;-75
2022/09/05 03:47:02;;;;;;;0.30;0.30;;;;;;;11.34;77.41;102030.00;5110738;28;20134;-75
2022/09/05 03:49:59;;;;;;;0.32;0.32;;;;;;;11.30;77.59;102022.13;5129223;28;20035;-75
2022/09/05 03:52:41;;;;;;;0.30;0.30;;;;;;;11.26;77.68;102026.44;5129094;28;20023;-76
2022/09/05 03:55:33;;;;;;;0.43;0.43;;;;;;;11.23;77.71;102021.19;5128982;28;20028;-76
2022/09/05 03:58:02;;;;;;;0.47;0.47;;;;;;;11.14;77.70;102009.78;5110372;28;20028;-76
2022/09/05 04:00:33;;;;;;;0.30;0.30;;;;;;;11.23;77.75;102021.19;5129150;28;20027;-74
2022/09/05 04:03:34;;;;;;;0.30;0.30;;;;;;;11.20;77.82;102023.75;5128722;28;20023;-75
2022/09/05 04:06:26;;;;;;;0.30;0.30;;;;;;;11.19;77.84;102032.38;5097128;28;20039;-73
2022/09/05 04:09:26;;;;;;;0.40;0.40;;;;;;;11.19;77.82;102029.75;5128662;28;20506;-73
2022/09/05 04:11:58;;;;;;;0.30;0.30;;;;;;;11.21;78.03;102033.28;5128916;28;20028;-74
2022/09/05 04:14:49;;;;;;;0.45;0.45;;;;;;;11.20;77.83;102031.53;5128718;28;20027;-74
2022/09/05 04:17:41;;;;;;;0.30;0.30;;;;;;;11.21;78.03;102035.88;5128436;28;20043;-73
2022/09/05 04:20:42;;;;;;;0.50;0.50;;;;;;;11.20;77.96;102041.94;5128548;28;20375;-74
2022/09/05 04:23:29;;;;;;;0.30;0.30;;;;;;;11.18;77.90;102030.63;5114062;28;20084;-74
2022/09/05 04:26:21;;;;;;;0.30;0.30;;;;;;;11.19;77.80;102042.75;5128717;28;20027;-71
2022/09/05 04:28:49;;;;;;;0.30;0.30;;;;;;;11.21;77.88;102039.34;5127744;28;20046;-73
2022/09/05 04:31:33;;;;;;;0.30;0.30;;;;;;;11.31;77.81;102045.53;5128199;28;20474;-74
2022/09/05 04:34:07;;;;;;;1.13;1.05;;;;;;;11.46;77.81;102051.81;5127703;28;20505;-75
2022/09/05 04:36:35;;;;;;;1.05;1.05;;;;;;;11.59;78.06;102050.28;5128289;28;20023;-74
2022/09/05 04:39:07;;;;;;;0.30;0.30;;;;;;;11.81;78.13;102054.03;5127381;28;20030;-76
2022/09/05 04:41:37;;;;;;;0.40;0.40;;;;;;;12.01;78.27;102053.44;5128527;28;20023;-75
2022/09/05 04:44:13;;;;;;;0.30;0.30;;;;;;;12.11;78.00;102055.31;5128575;28;20057;-76
2022/09/05 04:46:46;;;;;;;1.63;1.52;;;;;;;12.09;77.32;102061.38;5128331;28;20075;-76
2022/09/05 04:49:29;;;;;;;0.30;0.30;;;;;;;11.90;76.80;102051.56;5127986;28;20448;-77
2022/09/05 04:52:37;;;;;;;0.30;0.30;;;;;;;11.80;76.35;102065.31;5109835;28;20062;-76
2022/09/05 04:55:11;;;;;;;0.30;0.30;;;;;;;11.64;76.32;102064.22;5128085;28;20031;-76
2022/09/05 04:57:47;;;;;;;0.30;0.30;;;;;;;11.55;76.65;102067.56;5109536;28;20055;-76
2022/09/05 05:00:21;;;;;;;0.30;0.30;;;;;;;11.66;77.08;102067.75;5109666;28;20026;-78
2022/09/05 05:02:55;;;;;;;0.30;0.30;;;;;;;11.86;77.21;102065.41;5109484;28;20027;-77
2022/09/05 05:05:45;;;;;;;0.40;0.40;;;;;;;12.00;77.02;102067.28;5128197;28;20031;-76
2022/09/05 05:08:31;;;;;;;0.30;0.30;;;;;;;12.17;76.84;102072.75;5127662;28;20082;-77
2022/09/05 05:11:03;;;;;;;0.30;0.30;;;;;;;12.14;76.32;102076.16;5128326;28;20027;-77
2022/09/05 05:13:35;;;;;;;0.40;0.40;;;;;;;12.01;76.04;102072.50;5128339;28;20030;-76
2022/09/05 05:16:12;;;;;;;0.40;0.40;;;;;;;12.08;76.51;102086.50;5109362;28;20047;-76
2022/09/05 05:18:50;;;;;;;0.32;0.32;;;;;;;12.45;77.21;102078.25;5127579;28;20389;-76
2022/09/05 05:21:24;;;;;;;0.40;0.40;;;;;;;12.89;77.73;102079.53;5109898;28;20053;-76
2022/09/05 05:24:09;;;;;;;0.30;0.30;;;;;;;13.41;77.49;102087.75;5108981;28;20027;-75
2022/09/05 05:26:46;;;;;;;0.40;0.40;;;;;;;13.79;76.54;102086.28;5127732;28;20112;-75
2022/09/05 05:29:22;;;;;;;0.30;0.30;;;;;;;14.11;75.54;102088.16;5108794;28;20121;-76
2022/09/05 05:31:54;;;;;;;0.30;0.30;;;;;;;14.38;73.92;102090.84;5127127;28;20027;-77
2022/09/05 05:34:35;;;;;;;0.32;0.32;;;;;;;14.79;74.48;102091.81;5127187;28;20026;-76
2022/09/05 05:37:14;;;;;;;0.40;0.40;;;;;;;15.22;74.27;102087.47;5127107;28;20043;-77
2022/09/05 05:39:45;;;;;;;0.40;0.40;;;;;;;15.78;74.30;102079.53;5127128;28;20083;-77
2022/09/05 05:42:19;;;;;;;0.30;0.30;;;;;;;16.34;72.02;102089.75;5127360;28;20049;-78
2022/09/05 05:44:51;;;;;;;0.30;0.30;;;;;;;16.73;72.26;102088.63;5127222;28;20023;-78
2022/09/05 05:47:29;;;;;;;0.30;0.30;;;;;;;17.24;70.03;102091.78;5126350;28;20047;-75
2022/09/05 05:50:22;;;;;;;0.40;0.40;;;;;;;17.50;68.91;102094.13;5126100;28;20023;-76
2022/09/05 05:53:18;;;;;;;0.30;0.30;;;;;;;17.65;66.58;102093.06;5127029;28;20023;-77
2022/09/05 05:55:56;;;;;;;0.20;0.20;;;;;;;17.75;62.49;102093.84;5126991;28;20035;-77
2022/09/05 05:58:44;;;;;;;0.20;0.20;;;;;;;17.60;63.34;102089.66;5108600;28;20023;-76
2022/09/05 06:01:15;;;;;;;0.20;0.20;;;;;;;17.83;63.25;102093.75;5126809;28;20076;-75
2022/09/05 06:04:04;;;;;;;0.30;0.30;;;;;;;18.03;59.15;102090.00;5126601;28;20076;-75
2022/09/05 06:06:41;;;;;;;0.20;0.20;;;;;;;17.70;59.37;102093.00;5108291;28;20197;-75
2022/09/05 06:09:27;;;;;;;1.33;1.30;;;;;;;17.31;59.58;102094.31;5126628;28;20034;-75
2022/09/05 06:11:56;;;;;;;0.30;0.30;;;;;;;17.51;61.41;102102.88;5108327;28;20084;-75
2022/09/05 06:14:47;;;;;;;0.30;0.30;;;;;;;18.08;60.46;102096.94;5126763;28;20091;-76
2022/09/05 06:17:53;;;;;;;0.22;0.22;;;;;;;18.08;59.22;102102.19;5108044;28;20015;-73
2022/09/05 06:20:57;;;;;;;0.20;0.20;;;;;;;17.87;58.92;102103.34;5108401;28;20080;-75
2022/09/05 06:23:55;;;;;;;0.20;0.20;;;;;;;17.75;57.66;102103.50;5122439;28;20039;-77
2022/09/05 06:26:26;;;;;;;0.20;0.20;;;;;;;17.58;57.48;102096.66;5063718;28;20062;-72
2022/09/05 06:29:18;;;;;;;0.30;0.30;;;;;;;17.63;58.19;102108.00;5126391;28;20051;-75
2022/09/05 06:32:00;;;;;;;0.30;0.30;;;;;;;17.48;56.95;102109.00;5126343;28;20135;-78
2022/09/05 06:34:51;;;;;;;0.30;0.30;;;;;;;16.90;57.35;102106.00;5126075;28;20023;-75
2022/09/05 06:37:44;;;;;;;0.30;0.30;;;;;;;16.26;58.91;102112.53;5107809;28;20467;-73
2022/09/05 06:40:31;;;;;;;0.20;0.20;;;;;;;16.01;59.42;102101.28;5126289;28;20023;-74
2022/09/05 06:43:09;;;;;;;0.30;0.30;;;;;;;15.90;60.58;102111.75;5126343;28;20053;-75
2022/09/05 06:45:52;;;;;;;0.30;0.30;;;;;;;16.40;60.55;102107.22;5126180;28;20031;-77
2022/09/05 06:48:27;;;;;;;0.30;0.30;;;;;;;16.72;59.83;102103.50;5107596;28;20066;-77
2022/09/05 06:51:14;;;;;;;0.20;0.20;;;;;;;17.16;58.26;102111.06;5126241;28;20027;-75
2022/09/05 06:54:18;;;;;;;0.30;0.30;;;;;;;17.06;57.94;102110.22;5126012;28;20016;-74
2022/09/05 06:56:46;;;;;;;0.30;0.30;;;;;;;16.94;58.21;102108.59;5026572;28;20044;-75
2022/09/05 06:59:36;;;;;;;0.30;0.30;;;;;;;17.05;57.81;102105.88;5043109;28;20036;-75
2022/09/05 07:02:19;;;;;;;0.22;0.22;;;;;;;16.96;58.09;102109.44;5044636;28;20045;-74
2022/09/05 07:05:03;;;;;;;0.30;0.30;;;;;;;16.85;58.66;102116.53;5030653;28;20036;-76
2022/09/05 07:07:38;;;;;;;0.20;0.20;;;;;;;16.98;58.66;102112.91;5046975;28;20030;-75
2022/09/05 07:10:26;;;;;;;0.30;0.30;;;;;;;17.04;58.38;102117.28;5047198;28;20119;-76
2022/09/05 07:13:03;;;;;;;0.20;0.20;;;;;;;17.27;58.57;102105.72;5047308;28;20072;-75
2022/09/05 07:15:47;;;;;;;0.30;0.30;;;;;;;17.87;58.42;102121.75;5047079;28;20060;-75
2022/09/05 07:18:23;;;;;;;0.30;0.30;;;;;;;18.23;56.76;102115.22;5030501;28;20025;-77
2022/09/05 07:20:56;;;;;;;0.20;0.20;;;;;;;18.65;57.48;102120.75;5047066;28;20025;-75
2022/09/05 07:23:45;;;;;;;0.20;0.20;;;;;;;19.54;57.23;102111.38;5046632;28;20025;-74
2022/09/05 07:26:11;;;;;;;0.20;0.20;;;;;;;20.24;53.90;102114.38;5030023;28;20033;-74
2022/09/05 07:28:42;;;;;;;0.20;0.20;;;;;;;20.13;52.20;102114.63;5044997;28;20489;-74
2022/09/05 07:31:21;;;;;;;0.30;0.30;;;;;;;20.12;53.67;102110.25;5049401;28;20041;-73
2022/09/05 07:33:48;;;;;;;0.20;0.20;;;;;;;20.26;51.99;102109.09;5129486;28;20043;-74
2022/09/05 07:36:21;;;;;;;0.20;0.20;;;;;;;20.19;51.80;102114.50;5129686;28;20020;-73
2022/09/05 07:38:50;;;;;;;0.20;0.20;;;;;;;20.15;51.29;102122.50;5129699;28;20083;-74
2022/09/05 07:41:26;;;;;;;0.20;0.20;;;;;;;19.98;51.92;102118.44;5129650;28;20042;-75
2022/09/05 07:43:57;;;;;;;0.20;0.20;;;;;;;20.04;52.26;102120.09;5129644;28;20073;-75
2022/09/05 07:46:26;;;;;;;;;;;;;;;20.11;51.15;102121.69;5129803;28;20552;-74
2022/09/05 07:49:03;;;;;;;0.20;0.20;;;;;;;20.30;52.49;102124.81;5129177;28;19934;-75
2022/09/05 07:51:32;;;;;;;0.20;0.20;;;;;;;20.62;51.79;102122.34;5129435;28;20045;-75
2022/09/05 07:54:05;;;;;;;0.20;0.20;;;;;;;20.89;52.19;102133.16;5111052;28;20020;-75
2022/09/05 07:56:50;;;;;;;0.20;0.20;;;;;;;21.09;50.50;102120.34;5129297;28;20049;-75
2022/09/05 07:59:16;;;;;;;0.20;0.20;;;;;;;20.96;49.20;102133.88;5110886;28;20488;-74
2022/09/05 08:01:47;;;;;;;0.20;0.20;;;;;;;20.71;49.31;102133.56;5129146;28;20031;-74
2022/09/05 08:04:34;;;;;;;0.20;0.20;;;;;;;20.59;49.52;102142.66;5129065;28;20015;-74
2022/09/05 08:07:09;;;;;;;0.20;0.20;;;;;;;20.46;49.64;102145.59;5110757;28;20051;-74
2022/09/05 08:09:47;;;;;;;0.20;0.20;;;;;;;20.46;50.56;102147.34;5128976;28;20171;-75
2022/09/05 08:12:29;;;;;;;0.20;0.20;;;;;;;20.43;49.80;102148.28;5129152;28;20024;-74
2022/09/05 08:15:21;;;;;;;0.20;0.20;;;;;;;20.64;50.35;102148.72;5128108;28;20024;-74
2022/09/05 08:18:14;;;;;;;0.20;0.20;;;;;;;20.86;48.99;102145.53;5128797;28;20474;-74
2022/09/05 08:20:48;;;;;;;0.20;0.20;;;;;;;20.73;49.42;102148.47;5128911;28;20028;-74
2022/09/05 08:23:39;;;;;;;0.20;0.20;;;;;;;20.85;49.22;102142.03;5128947;28;20088;-75
2022/09/05 08:26:22;;;;;;;0.50;0.47;;;;;;;21.04;48.77;102146.88;5110703;28;20084;-75
2022/09/05 08:29:12;;;;;;;0.20;0.20;;;;;;;21.25;48.44;102145.47;5128592;28;20019;-75
2022/09/05 08:31:45;;;;;;;0.20;0.20;;;;;;;21.58;48.00;102141.97;5128599;28;20049;-74
2022/09/05 08:34:17;;;;;;;0.20;0.20;;;;;;;21.62;46.74;102118.97;5109977;28;20453;-74
2022/09/05 08:36:47;;;;;;;0.20;0.20;;;;;;;21.50;46.80;102131.59;5129053;28;20079;-73
2022/09/05 08:39:19;;;;;;;0.20;0.20;;;;;;;21.60;47.63;102129.59;5133170;28;20035;-75
2022/09/05 08:42:09;;;;;;;0.20;0.20;;;;;;;21.87;47.24;102132.38;5129189;28;20031;-75
2022/09/05 08:44:42;;;;;;;0.20;0.20;;;;;;;22.21;47.01;102119.06;5128962;28;20027;-75
2022/09/05 08:47:08;;;;;;;0.20;0.20;;;;;;;22.88;46.48;102133.78;5128433;28;20043;-76
2022/09/05 08:49:52;;;;;;;0.73;0.73;;;;;;;23.18;45.62;102118.69;5129799;28;20039;-75
2022/09/05 08:52:44;;;;;;;0.20;0.20;;;;;;;23.33;44.76;102122.56;5110257;28;20049;-74
2022/09/05 08:55:31;;;;;;;0.20;0.20;;;;;;;23.45;44.53;102119.50;5130061;28;20053;-75
2022/09/05 08:58:19;;;;;;;0.20;0.20;;;;;;;23.76;44.00;102122.81;5128763;28;20464;-75
2022/09/05 09:00:54;;;;;;;0.20;0.20;;;;;;;23.76;43.11;102115.75;5129728;28;20027;-74
2022/09/05 09:03:35;;;;;;;0.20;0.20;;;;;;;23.96;42.87;102103.50;5110807;28;20487;-75
2022/09/05 09:06:31;;;;;;;0.20;0.20;;;;;;;24.00;41.86;102106.91;5135670;28;20027;-75
2022/09/05 09:09:11;;;;;;;0.20;0.20;;;;;;;23.83;41.95;102107.56;5133390;28;20031;-75
2022/09/05 09:11:47;;;;;;;0.20;0.20;;;;;;;23.83;42.37;102118.16;5128532;28;20035;-75
2022/09/05 09:14:34;;;;;;;0.20;0.20;;;;;;;24.09;42.23;102101.25;5128100;28;20521;-75
2022/09/05 09:17:17;;;;;;;0.20;0.20;;;;;;;24.37;42.40;102112.59;5109765;28;20073;-75
2022/09/05 09:20:03;;;;;;;0.20;0.20;;;;;;;24.99;41.46;102104.78;5127432;28;20019;-75
2022/09/05 09:22:40;;;;;;;0.20;0.20;;;;;;;25.36;39.69;102101.44;5127830;28;20023;-74
2022/09/05 09:25:22;;;;;;;0.20;0.20;;;;;;;25.35;40.24;102097.06;5127675;28;20463;-74
2022/09/05 09:28:02;;;;;;;;;;;;;;;25.69;39.83;102100.88;5127793;28;20080;-74
2022/09/05 09:30:29;;;;;;;0.20;0.20;;;;;;;25.61;38.26;102106.53;5127656;28;19954;-75
2022/09/05 09:33:02;;;;;;;0.10;0.10;;;;;;;25.54;38.68;102093.56;5127600;28;20077;-75
2022/09/05 09:35:47;;;;;;;0.20;0.20;;;;;;;25.41;37.53;102110.06;5109192;28;20023;-74
2022/09/05 09:38:45;;;;;;;0.20;0.20;;;;;;;25.28;37.51;102092.94;5108908;28;20051;-75
2022/09/05 09:41:50;;;;;;;0.20;0.20;;;;;;;25.11;37.27;102084.75;5081853;28;20032;-74
2022/09/05 09:45:13;;;;;;;0.20;0.20;;;;;;;25.18;37.35;102093.34;5127097;28;20562;-75
2022/09/05 09:47:50;;;;;;;0.20;0.20;;;;;;;25.18;37.38;102095.13;5124871;28;20047;-74
2022/09/05 09:50:45;;;;;;;0.20;0.20;;;;;;;25.65;36.62;102083.34;5127014;28;20028;-75
2022/09/05 09:53:29;;;;;;;0.20;0.20;;;;;;;25.87;36.39;102079.66;5108763;28;20023;-75
2022/09/05 09:56:15;;;;;;;0.20;0.20;;;;;;;25.60;36.42;102083.53;5126944;28;20050;-74
2022/09/05 09:58:56;;;;;;;0.20;0.20;;;;;;;25.29;37.07;102078.72;5126757;28;20054;-75
2022/09/05 10:01:52;;;;;;;0.20;0.20;;;;;;;25.61;36.53;102081.69;5126935;28;20027;-75
2022/09/05 10:04:49;;;;;;;0.10;0.10;;;;;;;25.78;36.27;102086.31;5126823;28;20024;-74
2022/09/05 10:07:20;;;;;;;0.20;0.20;;;;;;;25.13;37.43;102074.94;5126825;28;20024;-74
2022/09/05 10:09:55;;;;;;;0.10;0.10;;;;;;;25.76;36.51;102085.50;5126693;28;20053;-74
2022/09/05 10:12:55;;;;;;;0.10;0.10;;;;;;;25.99;36.07;102073.75;5108363;28;20054;-75
2022/09/05 10:15:39;;;;;;;0.10;0.10;;;;;;;26.35;36.02;102071.22;5108197;28;20054;-75
2022/09/05 10:18:33;;;;;;;0.17;0.17;;;;;;;26.44;34.81;102065.44;5126432;28;20055;-74
2022/09/05 10:21:24;;;;;;;0.10;0.10;;;;;;;25.81;34.51;102064.00;5124113;28;20040;-73
2022/09/05 10:24:11;;;;;;;0.20;0.20;;;;;;;24.31;35.76;102070.38;5126529;28;20061;-75
2022/09/05 10:26:58;;;;;;;0.17;0.17;;;;;;;22.97;37.47;102069.03;5108080;28;20026;-75
2022/09/05 10:29:41;;;;;;;0.10;0.10;;;;;;;21.95;39.04;102075.78;5107717;28;20087;-75
2022/09/05 10:32:14;;;;;;;0.20;0.20;;;;;;;21.25;40.15;102066.25;5126434;28;20073;-74
2022/09/05 10:34:52;;;;;;;0.20;0.20;;;;;;;20.76;41.33;102063.97;5126287;28;20038;-75
2022/09/05 10:37:18;;;;;;;0.30;0.30;;;;;;;20.45;42.14;102072.59;5107485;28;20028;-74
2022/09/05 10:39:51;;;;;;;0.20;0.20;;;;;;;20.17;42.75;102065.34;5107724;28;20398;-76
2022/09/05 10:42:26;;;;;;;0.20;0.20;;;;;;;20.05;43.08;102066.47;5126271;28;20016;-75
2022/09/05 10:44:56;;;;;;;0.20;0.20;;;;;;;20.03;43.41;102076.19;5126580;28;20414;-75
2022/09/05 10:47:51;;;;;;;0.20;0.20;;;;;;;19.91;44.11;102070.25;5125940;28;20039;-74
2022/09/05 10:50:31;;;;;;;0.20;0.20;;;;;;;19.74;43.90;102077.63;5126206;28;20023;-75
2022/09/05 10:53:18;;;;;;;0.20;0.20;;;;;;;20.17;44.16;102062.72;5126100;28;20023;-75
2022/09/05 10:56:20;;;;;;;0.60;0.60;;;;;;;21.60;41.95;102052.94;5126122;28;20020;-76
2022/09/05 10:59:03;;;;;;;0.20;0.20;;;;;;;22.81;39.81;102058.13;5126482;28;20020;-76
2022/09/05 11:01:40;;;;;;;0.20;0.20;;;;;;;22.46;39.30;102060.97;5126198;28;20089;-73
2022/09/05 11:04:14;;;;;;;0.20;0.20;;;;;;;21.67;39.44;102056.28;5107598;28;20075;-75
2022/09/05 11:06:39;;;;;;;0.20;0.20;;;;;;;21.07;40.62;102056.19;5107718;28;20039;-75
2022/09/05 11:09:13;;;;;;;0.20;0.20;;;;;;;20.66;41.97;102046.59;5125844;28;20024;-75
2022/09/05 11:11:45;;;;;;;0.20;0.20;;;;;;;20.84;42.48;102049.69;5126015;28;20077;-75
2022/09/05 11:14:30;;;;;;;;;;;;;;;21.38;41.56;102050.94;5126511;28;20081;-76
2022/09/05 11:17:13;;;;;;;0.20;0.20;;;;;;;21.47;41.30;102043.66;5125992;28;19908;-73
2022/09/05 11:19:43;;;;;;;0.20;0.20;;;;;;;21.37;40.55;102038.66;5125899;28;20069;-73
2022/09/05 11:22:12;;;;;;;0.20;0.20;;;;;;;20.80;40.59;102033.94;5125926;28;20027;-73
2022/09/05 11:24:49;;;;;;;0.20;0.20;;;;;;;20.34;41.32;102040.34;5125755;28;20024;-74
2022/09/05 11:27:30;;;;;;;0.20;0.20;;;;;;;20.00;42.34;102034.06;5125432;28;20027;-75
2022/09/05 11:30:03;;;;;;;0.20;0.20;;;;;;;19.83;43.00;102035.28;5124428;28;20456;-76
2022/09/05 11:32:59;;;;;;;0.22;0.22;;;;;;;19.72;43.59;102032.00;5125563;28;20034;-75
2022/09/05 11:35:25;;;;;;;0.20;0.20;;;;;;;19.86;42.98;102027.31;5126070;28;20020;-74
2022/09/05 11:38:06;;;;;;;0.20;0.20;;;;;;;19.95;42.76;102036.81;5125636;28;20027;-75
2022/09/05 11:40:57;;;;;;;0.20;0.20;;;;;;;19.89;43.40;102035.16;5125548;28;20019;-75
2022/09/05 11:44:10;;;;;;;0.30;0.30;;;;;;;19.89;43.32;102031.66;5125980;28;20016;-74
2022/09/05 11:46:56;;;;;;;0.30;0.30;;;;;;;19.90;43.44;102030.75;5107692;28;20065;-76
2022/09/05 11:49:49;;;;;;;0.40;0.40;;;;;;;19.93;43.22;102038.59;5127045;28;20050;-75
2022/09/05 11:52:41;;;;;;;0.20;0.20;;;;;;;19.86;43.01;102029.94;5129450;28;20102;-74
2022/09/05 11:55:49;;;;;;;0.20;0.20;;;;;;;19.80;43.23;102030.06;5129592;28;20100;-74
2022/09/05 11:58:30;;;;;;;0.30;0.30;;;;;;;19.70;42.98;102026.75;5111019;28;20050;-73
2022/09/05 12:01:14;;;;;;;0.20;0.20;;;;;;;19.59;43.52;102020.84;5129320;28;20019;-75
2022/09/05 12:04:01;;;;;;;0.30;0.30;;;;;;;19.59;43.72;102018.22;5128958;28;20027;-75
2022/09/05 12:06:56;;;;;;;0.20;0.20;;;;;;;19.65;44.10;102016.31;5129255;28;20019;-72
2022/09/05 12:09:30;;;;;;;0.20;0.20;;;;;;;19.73;43.20;102012.69;5128922;28;20031;-74
2022/09/05 12:12:25;;;;;;;0.20;0.20;;;;;;;19.74;43.42;102017.03;5110467;28;20108;-74
2022/09/05 12:15:09;;;;;;;0.20;0.20;;;;;;;19.74;42.90;102015.28;5129117;28;20026;-73
2022/09/05 12:17:59;;;;;;;0.30;0.30;;;;;;;19.74;43.42;102004.75;5128898;28;20019;-76
2022/09/05 12:20:44;;;;;;;0.20;0.20;;;;;;;19.85;43.07;102006.25;5110731;28;20023;-74
2022/09/05 12:23:37;;;;;;;0.20;0.20;;;;;;;19.94;41.35;102006.94;5128880;28;20034;-75
2022/09/05 12:26:31;;;;;;;0.20;0.20;;;;;;;19.93;41.61;102002.56;5128847;28;20030;-75
2022/09/05 12:29:18;;;;;;;0.20;0.20;;;;;;;19.90;41.60;101989.47;5117509;28;20498;-74
2022/09/05 12:31:57;;;;;;;0.30;0.30;;;;;;;19.79;42.21;101983.56;5128833;28;20102;-74
2022/09/05 12:34:41;;;;;;;0.30;0.30;;;;;;;19.78;41.99;101989.72;5110167;28;20028;-74
2022/09/05 12:37:11;;;;;;;0.20;0.20;;;;;;;19.74;42.06;101994.19;5128995;28;20024;-75